sensor_id;sensor_type;location;lat;lon;timestamp;temperature;humidity
43995;DHT22;51687;52.160;5.298;2023-08-24T00:01:48;25.30;53.20
43995;DHT22;51687;52.160;5.298;2023-08-24T00:04:15;25.30;53.30
43995;DHT22;51687;52.160;5.298;2023-08-24T00:06:42;25.30;53.40
43995;DHT22;51687;52.160;5.298;2023-08-24T00:09:09;25.30;53.40
43995;DHT22;51687;52.160;5.298;2023-08-24T00:11:35;25.20;53.50
43995;DHT22;51687;52.160;5.298;2023-08-24T00:14:02;25.30;53.60
43995;DHT22;51687;52.160;5.298;2023-08-24T00:16:29;25.30;53.70
43995;DHT22;51687;52.160;5.298;2023-08-24T00:18:56;25.30;53.70
43995;DHT22;51687;52.160;5.298;2023-08-24T00:21:22;25.30;53.70
43995;DHT22;51687;52.160;5.298;2023-08-24T00:23:51;25.30;53.80
43995;DHT22;51687;52.160;5.298;2023-08-24T00:26:17;25.30;53.70
43995;DHT22;51687;52.160;5.298;2023-08-24T00:28:44;25.30;53.90
43995;DHT22;51687;52.160;5.298;2023-08-24T00:31:12;25.30;53.80
43995;DHT22;51687;52.160;5.298;2023-08-24T00:33:39;25.30;53.90
43995;DHT22;51687;52.160;5.298;2023-08-24T00:36:06;25.20;53.90
43995;DHT22;51687;52.160;5.298;2023-08-24T00:38:33;25.20;53.80
43995;DHT22;51687;52.160;5.298;2023-08-24T00:41:00;25.20;53.90
43995;DHT22;51687;52.160;5.298;2023-08-24T00:43:28;25.20;54.00
43995;DHT22;51687;52.160;5.298;2023-08-24T00:45:58;25.20;54.00
43995;DHT22;51687;52.160;5.298;2023-08-24T00:48:26;25.20;53.90
43995;DHT22;51687;52.160;5.298;2023-08-24T00:51:00;25.20;54.00
43995;DHT22;51687;52.160;5.298;2023-08-24T00:53:29;25.20;53.90
43995;DHT22;51687;52.160;5.298;2023-08-24T00:55:57;25.20;54.00
43995;DHT22;51687;52.160;5.298;2023-08-24T00:58:24;25.20;54.10
43995;DHT22;51687;52.160;5.298;2023-08-24T01:00:54;25.20;54.20
43995;DHT22;51687;52.160;5.298;2023-08-24T01:03:22;25.20;53.80
43995;DHT22;51687;52.160;5.298;2023-08-24T01:05:50;25.20;54.20
43995;DHT22;51687;52.160;5.298;2023-08-24T01:08:17;25.20;53.90
43995;DHT22;51687;52.160;5.298;2023-08-24T01:13:37;25.20;53.80
43995;DHT22;51687;52.160;5.298;2023-08-24T01:16:21;25.20;54.00
43995;DHT22;51687;52.160;5.298;2023-08-24T01:18:49;25.20;54.40
43995;DHT22;51687;52.160;5.298;2023-08-24T01:21:17;25.20;54.00
43995;DHT22;51687;52.160;5.298;2023-08-24T01:26:16;25.20;54.10
43995;DHT22;51687;52.160;5.298;2023-08-24T01:28:45;25.20;54.10
43995;DHT22;51687;52.160;5.298;2023-08-24T01:31:13;25.20;54.00
43995;DHT22;51687;52.160;5.298;2023-08-24T01:33:40;25.20;57.60
43995;DHT22;51687;52.160;5.298;2023-08-24T01:36:08;25.20;54.60
43995;DHT22;51687;52.160;5.298;2023-08-24T01:38:35;25.20;54.40
43995;DHT22;51687;52.160;5.298;2023-08-24T01:41:12;25.20;54.50
43995;DHT22;51687;52.160;5.298;2023-08-24T01:51:06;25.10;54.30
43995;DHT22;51687;52.160;5.298;2023-08-24T01:53:34;25.10;54.60
43995;DHT22;51687;52.160;5.298;2023-08-24T01:56:00;25.10;55.00
43995;DHT22;51687;52.160;5.298;2023-08-24T01:58:27;25.10;54.70
43995;DHT22;51687;52.160;5.298;2023-08-24T02:00:54;25.10;54.60
43995;DHT22;51687;52.160;5.298;2023-08-24T02:03:21;25.10;54.50
43995;DHT22;51687;52.160;5.298;2023-08-24T02:05:48;25.10;54.60
43995;DHT22;51687;52.160;5.298;2023-08-24T02:08:15;25.10;54.80
43995;DHT22;51687;52.160;5.298;2023-08-24T02:10:41;25.10;54.80
43995;DHT22;51687;52.160;5.298;2023-08-24T02:13:08;25.10;55.10
43995;DHT22;51687;52.160;5.298;2023-08-24T02:15:37;25.10;55.20
43995;DHT22;51687;52.160;5.298;2023-08-24T02:18:08;25.10;55.20
43995;DHT22;51687;52.160;5.298;2023-08-24T02:20:36;25.10;55.20
43995;DHT22;51687;52.160;5.298;2023-08-24T02:23:04;25.10;55.30
43995;DHT22;51687;52.160;5.298;2023-08-24T02:25:31;25.10;55.30
43995;DHT22;51687;52.160;5.298;2023-08-24T02:27:58;25.10;55.40
43995;DHT22;51687;52.160;5.298;2023-08-24T02:30:25;25.10;55.60
43995;DHT22;51687;52.160;5.298;2023-08-24T02:32:52;25.10;57.60
43995;DHT22;51687;52.160;5.298;2023-08-24T02:35:19;25.10;56.40
43995;DHT22;51687;52.160;5.298;2023-08-24T02:37:46;25.10;56.00
43995;DHT22;51687;52.160;5.298;2023-08-24T02:40:13;25.10;56.10
43995;DHT22;51687;52.160;5.298;2023-08-24T02:42:39;25.00;55.90
43995;DHT22;51687;52.160;5.298;2023-08-24T02:45:06;25.10;56.40
43995;DHT22;51687;52.160;5.298;2023-08-24T02:47:33;25.10;56.10
43995;DHT22;51687;52.160;5.298;2023-08-24T02:50:00;25.10;56.70
43995;DHT22;51687;52.160;5.298;2023-08-24T02:52:27;25.10;56.30
43995;DHT22;51687;52.160;5.298;2023-08-24T02:54:53;25.10;56.10
43995;DHT22;51687;52.160;5.298;2023-08-24T02:57:20;25.10;56.40
43995;DHT22;51687;52.160;5.298;2023-08-24T02:59:47;25.10;57.00
43995;DHT22;51687;52.160;5.298;2023-08-24T03:02:13;25.00;56.30
43995;DHT22;51687;52.160;5.298;2023-08-24T03:04:40;25.00;56.20
43995;DHT22;51687;52.160;5.298;2023-08-24T03:07:07;25.00;56.30
43995;DHT22;51687;52.160;5.298;2023-08-24T03:09:35;25.00;56.30
43995;DHT22;51687;52.160;5.298;2023-08-24T03:12:02;25.00;56.10
43995;DHT22;51687;52.160;5.298;2023-08-24T03:14:29;25.00;56.10
43995;DHT22;51687;52.160;5.298;2023-08-24T03:16:56;25.00;56.10
43995;DHT22;51687;52.160;5.298;2023-08-24T03:21:50;25.00;56.20
43995;DHT22;51687;52.160;5.298;2023-08-24T03:24:17;25.00;56.10
43995;DHT22;51687;52.160;5.298;2023-08-24T03:26:45;25.00;56.10
43995;DHT22;51687;52.160;5.298;2023-08-24T03:29:12;25.00;56.10
43995;DHT22;51687;52.160;5.298;2023-08-24T03:31:38;25.00;56.10
43995;DHT22;51687;52.160;5.298;2023-08-24T03:34:05;25.00;56.10
43995;DHT22;51687;52.160;5.298;2023-08-24T03:36:32;25.00;56.10
43995;DHT22;51687;52.160;5.298;2023-08-24T03:38:59;25.00;56.00
43995;DHT22;51687;52.160;5.298;2023-08-24T03:41:25;25.00;56.10
43995;DHT22;51687;52.160;5.298;2023-08-24T03:43:52;25.00;56.10
43995;DHT22;51687;52.160;5.298;2023-08-24T03:46:19;25.00;56.00
43995;DHT22;51687;52.160;5.298;2023-08-24T03:48:46;25.00;56.00
43995;DHT22;51687;52.160;5.298;2023-08-24T03:51:13;25.00;55.90
43995;DHT22;51687;52.160;5.298;2023-08-24T03:53:39;25.00;56.10
43995;DHT22;51687;52.160;5.298;2023-08-24T03:56:06;25.00;55.90
43995;DHT22;51687;52.160;5.298;2023-08-24T03:58:33;25.00;56.00
43995;DHT22;51687;52.160;5.298;2023-08-24T04:01:03;25.00;55.80
43995;DHT22;51687;52.160;5.298;2023-08-24T04:03:30;25.00;56.00
43995;DHT22;51687;52.160;5.298;2023-08-24T04:05:57;25.00;55.70
43995;DHT22;51687;52.160;5.298;2023-08-24T04:08:23;25.00;55.70
43995;DHT22;51687;52.160;5.298;2023-08-24T04:10:50;25.00;55.90
43995;DHT22;51687;52.160;5.298;2023-08-24T04:13:17;25.00;55.70
43995;DHT22;51687;52.160;5.298;2023-08-24T04:15:44;25.00;55.70
43995;DHT22;51687;52.160;5.298;2023-08-24T04:18:10;25.00;55.70
43995;DHT22;51687;52.160;5.298;2023-08-24T04:20:37;25.00;55.70
43995;DHT22;51687;52.160;5.298;2023-08-24T04:23:04;24.90;55.70
43995;DHT22;51687;52.160;5.298;2023-08-24T04:25:33;25.00;55.70
43995;DHT22;51687;52.160;5.298;2023-08-24T04:28:00;25.00;55.70
43995;DHT22;51687;52.160;5.298;2023-08-24T04:30:27;24.90;55.60
43995;DHT22;51687;52.160;5.298;2023-08-24T04:32:53;25.00;55.70
43995;DHT22;51687;52.160;5.298;2023-08-24T04:35:20;24.90;55.70
43995;DHT22;51687;52.160;5.298;2023-08-24T04:37:47;24.90;55.70
43995;DHT22;51687;52.160;5.298;2023-08-24T04:40:14;24.90;55.70
43995;DHT22;51687;52.160;5.298;2023-08-24T04:42:41;24.90;55.80
43995;DHT22;51687;52.160;5.298;2023-08-24T04:45:08;24.90;55.80
43995;DHT22;51687;52.160;5.298;2023-08-24T04:47:35;24.90;55.70
43995;DHT22;51687;52.160;5.298;2023-08-24T04:50:02;24.90;55.80
43995;DHT22;51687;52.160;5.298;2023-08-24T04:52:31;24.90;55.70
43995;DHT22;51687;52.160;5.298;2023-08-24T04:54:57;24.90;55.70
43995;DHT22;51687;52.160;5.298;2023-08-24T04:57:24;24.90;55.70
43995;DHT22;51687;52.160;5.298;2023-08-24T04:59:51;24.90;55.70
43995;DHT22;51687;52.160;5.298;2023-08-24T05:02:18;24.90;55.90
43995;DHT22;51687;52.160;5.298;2023-08-24T05:04:45;24.90;55.80
43995;DHT22;51687;52.160;5.298;2023-08-24T05:07:12;24.90;56.00
43995;DHT22;51687;52.160;5.298;2023-08-24T05:09:38;24.90;56.40
43995;DHT22;51687;52.160;5.298;2023-08-24T05:12:05;24.90;55.80
43995;DHT22;51687;52.160;5.298;2023-08-24T05:14:32;24.90;55.70
43995;DHT22;51687;52.160;5.298;2023-08-24T05:16:59;24.90;55.80
43995;DHT22;51687;52.160;5.298;2023-08-24T05:19:26;24.90;56.00
43995;DHT22;51687;52.160;5.298;2023-08-24T05:21:55;24.90;56.00
43995;DHT22;51687;52.160;5.298;2023-08-24T05:24:22;24.90;56.00
43995;DHT22;51687;52.160;5.298;2023-08-24T05:26:49;24.90;55.90
43995;DHT22;51687;52.160;5.298;2023-08-24T05:29:15;24.80;55.90
43995;DHT22;51687;52.160;5.298;2023-08-24T05:31:42;24.80;56.20
43995;DHT22;51687;52.160;5.298;2023-08-24T05:34:09;24.80;55.90
43995;DHT22;51687;52.160;5.298;2023-08-24T05:36:35;24.80;56.00
43995;DHT22;51687;52.160;5.298;2023-08-24T05:41:33;24.70;55.90
43995;DHT22;51687;52.160;5.298;2023-08-24T05:46:26;24.60;56.40
43995;DHT22;51687;52.160;5.298;2023-08-24T05:48:53;24.50;57.00
43995;DHT22;51687;52.160;5.298;2023-08-24T05:51:22;24.40;57.30
43995;DHT22;51687;52.160;5.298;2023-08-24T05:53:49;24.30;57.90
43995;DHT22;51687;52.160;5.298;2023-08-24T05:56:15;24.20;57.60
43995;DHT22;51687;52.160;5.298;2023-08-24T05:58:42;24.20;57.90
43995;DHT22;51687;52.160;5.298;2023-08-24T06:01:09;24.20;58.20
43995;DHT22;51687;52.160;5.298;2023-08-24T06:03:36;24.20;58.40
43995;DHT22;51687;52.160;5.298;2023-08-24T06:06:03;24.10;58.60
43995;DHT22;51687;52.160;5.298;2023-08-24T06:08:31;24.10;59.00
43995;DHT22;51687;52.160;5.298;2023-08-24T06:10:58;24.10;59.20
43995;DHT22;51687;52.160;5.298;2023-08-24T06:13:25;24.10;59.40
43995;DHT22;51687;52.160;5.298;2023-08-24T06:15:52;24.10;59.40
43995;DHT22;51687;52.160;5.298;2023-08-24T06:18:18;24.00;59.50
43995;DHT22;51687;52.160;5.298;2023-08-24T06:20:46;24.10;59.60
43995;DHT22;51687;52.160;5.298;2023-08-24T06:23:12;24.00;59.60
43995;DHT22;51687;52.160;5.298;2023-08-24T06:25:44;24.00;59.70
43995;DHT22;51687;52.160;5.298;2023-08-24T06:28:11;24.00;59.80
43995;DHT22;51687;52.160;5.298;2023-08-24T06:30:39;24.00;59.80
43995;DHT22;51687;52.160;5.298;2023-08-24T06:33:07;24.00;59.90
43995;DHT22;51687;52.160;5.298;2023-08-24T06:35:34;23.90;60.00
43995;DHT22;51687;52.160;5.298;2023-08-24T06:38:02;23.90;60.20
43995;DHT22;51687;52.160;5.298;2023-08-24T06:40:29;23.90;60.20
43995;DHT22;51687;52.160;5.298;2023-08-24T06:42:57;23.90;60.40
43995;DHT22;51687;52.160;5.298;2023-08-24T06:45:24;23.90;60.50
43995;DHT22;51687;52.160;5.298;2023-08-24T06:47:50;23.90;60.60
43995;DHT22;51687;52.160;5.298;2023-08-24T06:50:19;23.90;60.90
43995;DHT22;51687;52.160;5.298;2023-08-24T06:52:46;23.90;61.00
43995;DHT22;51687;52.160;5.298;2023-08-24T06:55:13;23.90;61.00
43995;DHT22;51687;52.160;5.298;2023-08-24T06:57:40;23.90;62.10
43995;DHT22;51687;52.160;5.298;2023-08-24T07:00:07;23.90;61.20
43995;DHT22;51687;52.160;5.298;2023-08-24T07:02:36;23.90;61.50
43995;DHT22;51687;52.160;5.298;2023-08-24T07:05:03;23.90;61.80
43995;DHT22;51687;52.160;5.298;2023-08-24T07:07:35;23.90;61.90
43995;DHT22;51687;52.160;5.298;2023-08-24T07:10:02;23.90;61.90
43995;DHT22;51687;52.160;5.298;2023-08-24T07:12:30;23.90;61.50
43995;DHT22;51687;52.160;5.298;2023-08-24T07:14:57;23.90;61.90
43995;DHT22;51687;52.160;5.298;2023-08-24T07:17:24;23.90;61.70
43995;DHT22;51687;52.160;5.298;2023-08-24T07:19:51;23.90;61.80
43995;DHT22;51687;52.160;5.298;2023-08-24T07:22:18;23.90;62.10
43995;DHT22;51687;52.160;5.298;2023-08-24T07:24:45;23.90;62.00
43995;DHT22;51687;52.160;5.298;2023-08-24T07:27:12;23.90;62.20
43995;DHT22;51687;52.160;5.298;2023-08-24T07:29:40;23.90;61.90
43995;DHT22;51687;52.160;5.298;2023-08-24T07:32:07;23.90;62.20
43995;DHT22;51687;52.160;5.298;2023-08-24T07:34:34;23.90;62.10
43995;DHT22;51687;52.160;5.298;2023-08-24T07:37:01;23.90;62.20
43995;DHT22;51687;52.160;5.298;2023-08-24T07:39:28;23.90;62.30
43995;DHT22;51687;52.160;5.298;2023-08-24T07:41:55;23.90;62.60
43995;DHT22;51687;52.160;5.298;2023-08-24T07:44:21;23.90;62.20
43995;DHT22;51687;52.160;5.298;2023-08-24T07:46:48;23.90;62.20
43995;DHT22;51687;52.160;5.298;2023-08-24T07:49:16;23.90;62.70
43995;DHT22;51687;52.160;5.298;2023-08-24T07:51:42;24.00;62.60
43995;DHT22;51687;52.160;5.298;2023-08-24T07:54:10;24.00;62.70
43995;DHT22;51687;52.160;5.298;2023-08-24T07:56:37;24.00;62.50
43995;DHT22;51687;52.160;5.298;2023-08-24T07:59:04;24.00;61.90
43995;DHT22;51687;52.160;5.298;2023-08-24T08:01:31;24.00;62.40
43995;DHT22;51687;52.160;5.298;2023-08-24T08:03:58;24.00;62.30
43995;DHT22;51687;52.160;5.298;2023-08-24T08:06:26;24.00;62.80
43995;DHT22;51687;52.160;5.298;2023-08-24T08:08:54;24.00;62.30
43995;DHT22;51687;52.160;5.298;2023-08-24T08:11:20;24.00;62.30
43995;DHT22;51687;52.160;5.298;2023-08-24T08:13:48;24.00;62.10
43995;DHT22;51687;52.160;5.298;2023-08-24T08:16:15;24.00;62.00
43995;DHT22;51687;52.160;5.298;2023-08-24T08:18:42;24.00;61.30
43995;DHT22;51687;52.160;5.298;2023-08-24T08:21:10;24.00;61.90
43995;DHT22;51687;52.160;5.298;2023-08-24T08:23:49;24.00;61.90
43995;DHT22;51687;52.160;5.298;2023-08-24T08:26:16;24.00;61.90
43995;DHT22;51687;52.160;5.298;2023-08-24T08:28:43;24.00;62.30
43995;DHT22;51687;52.160;5.298;2023-08-24T08:31:11;24.00;62.60
43995;DHT22;51687;52.160;5.298;2023-08-24T08:33:37;24.00;63.20
43995;DHT22;51687;52.160;5.298;2023-08-24T08:36:04;24.10;62.80
43995;DHT22;51687;52.160;5.298;2023-08-24T08:38:31;24.00;63.30
43995;DHT22;51687;52.160;5.298;2023-08-24T08:41:03;24.10;63.10
43995;DHT22;51687;52.160;5.298;2023-08-24T08:43:30;24.00;63.20
43995;DHT22;51687;52.160;5.298;2023-08-24T08:45:58;24.10;63.50
43995;DHT22;51687;52.160;5.298;2023-08-24T08:48:26;24.10;63.20
43995;DHT22;51687;52.160;5.298;2023-08-24T08:50:55;24.10;63.70
43995;DHT22;51687;52.160;5.298;2023-08-24T08:53:23;24.10;63.20
43995;DHT22;51687;52.160;5.298;2023-08-24T08:55:55;24.10;63.60
43995;DHT22;51687;52.160;5.298;2023-08-24T08:58:25;24.10;64.30
43995;DHT22;51687;52.160;5.298;2023-08-24T09:00:55;24.10;63.70
43995;DHT22;51687;52.160;5.298;2023-08-24T09:03:22;24.20;64.20
43995;DHT22;51687;52.160;5.298;2023-08-24T09:05:50;24.20;63.70
43995;DHT22;51687;52.160;5.298;2023-08-24T09:08:17;24.20;64.20
43995;DHT22;51687;52.160;5.298;2023-08-24T09:10:45;24.20;64.50
43995;DHT22;51687;52.160;5.298;2023-08-24T09:13:11;24.20;63.90
43995;DHT22;51687;52.160;5.298;2023-08-24T09:15:38;24.20;63.20
43995;DHT22;51687;52.160;5.298;2023-08-24T09:18:07;24.30;63.90
43995;DHT22;51687;52.160;5.298;2023-08-24T09:20:35;24.30;64.00
43995;DHT22;51687;52.160;5.298;2023-08-24T09:23:02;24.30;63.60
43995;DHT22;51687;52.160;5.298;2023-08-24T09:25:32;24.30;63.90
43995;DHT22;51687;52.160;5.298;2023-08-24T09:27:59;24.30;64.60
43995;DHT22;51687;52.160;5.298;2023-08-24T09:30:35;24.30;64.30
43995;DHT22;51687;52.160;5.298;2023-08-24T09:33:11;24.30;62.80
43995;DHT22;51687;52.160;5.298;2023-08-24T09:35:39;24.30;63.40
43995;DHT22;51687;52.160;5.298;2023-08-24T09:38:22;24.40;63.70
43995;DHT22;51687;52.160;5.298;2023-08-24T09:40:55;24.40;63.80
43995;DHT22;51687;52.160;5.298;2023-08-24T09:43:22;24.40;62.90
43995;DHT22;51687;52.160;5.298;2023-08-24T09:48:17;24.50;63.10
43995;DHT22;51687;52.160;5.298;2023-08-24T09:50:45;24.50;63.20
43995;DHT22;51687;52.160;5.298;2023-08-24T09:53:21;24.50;64.40
43995;DHT22;51687;52.160;5.298;2023-08-24T09:55:57;24.50;63.20
43995;DHT22;51687;52.160;5.298;2023-08-24T09:58:26;24.50;64.00
43995;DHT22;51687;52.160;5.298;2023-08-24T10:00:54;24.50;63.70
43995;DHT22;51687;52.160;5.298;2023-08-24T10:03:24;24.60;63.00
43995;DHT22;51687;52.160;5.298;2023-08-24T10:05:56;24.60;63.00
43995;DHT22;51687;52.160;5.298;2023-08-24T10:08:36;24.60;63.20
43995;DHT22;51687;52.160;5.298;2023-08-24T10:11:05;24.60;63.10
43995;DHT22;51687;52.160;5.298;2023-08-24T10:13:55;24.60;64.40
43995;DHT22;51687;52.160;5.298;2023-08-24T10:16:23;24.70;63.60
43995;DHT22;51687;52.160;5.298;2023-08-24T10:18:50;24.70;64.40
43995;DHT22;51687;52.160;5.298;2023-08-24T10:21:18;24.70;64.00
43995;DHT22;51687;52.160;5.298;2023-08-24T10:23:46;24.70;64.40
43995;DHT22;51687;52.160;5.298;2023-08-24T10:26:13;24.70;65.20
43995;DHT22;51687;52.160;5.298;2023-08-24T10:28:41;24.70;65.60
43995;DHT22;51687;52.160;5.298;2023-08-24T10:31:08;24.80;64.80
43995;DHT22;51687;52.160;5.298;2023-08-24T10:33:35;24.80;65.40
43995;DHT22;51687;52.160;5.298;2023-08-24T10:36:06;24.80;64.60
43995;DHT22;51687;52.160;5.298;2023-08-24T10:38:35;24.80;64.90
43995;DHT22;51687;52.160;5.298;2023-08-24T10:41:07;24.80;64.70
43995;DHT22;51687;52.160;5.298;2023-08-24T10:43:38;24.80;65.30
43995;DHT22;51687;52.160;5.298;2023-08-24T10:46:12;24.90;65.80
43995;DHT22;51687;52.160;5.298;2023-08-24T10:53:59;24.90;66.90
43995;DHT22;51687;52.160;5.298;2023-08-24T10:59:16;24.90;68.30
43995;DHT22;51687;52.160;5.298;2023-08-24T11:01:54;24.90;68.60
43995;DHT22;51687;52.160;5.298;2023-08-24T11:04:22;24.90;67.70
43995;DHT22;51687;52.160;5.298;2023-08-24T11:06:53;25.00;68.30
43995;DHT22;51687;52.160;5.298;2023-08-24T11:09:21;24.90;67.80
43995;DHT22;51687;52.160;5.298;2023-08-24T11:12:03;24.90;66.90
43995;DHT22;51687;52.160;5.298;2023-08-24T11:14:48;25.00;67.30
43995;DHT22;51687;52.160;5.298;2023-08-24T11:17:19;25.00;67.60
43995;DHT22;51687;52.160;5.298;2023-08-24T11:19:49;25.00;67.70
43995;DHT22;51687;52.160;5.298;2023-08-24T11:22:20;25.00;68.20
43995;DHT22;51687;52.160;5.298;2023-08-24T11:24:47;25.00;68.50
43995;DHT22;51687;52.160;5.298;2023-08-24T11:27:14;25.00;67.90
43995;DHT22;51687;52.160;5.298;2023-08-24T11:29:42;25.00;67.60
43995;DHT22;51687;52.160;5.298;2023-08-24T11:32:10;25.00;67.00
43995;DHT22;51687;52.160;5.298;2023-08-24T11:34:36;25.00;66.90
43995;DHT22;51687;52.160;5.298;2023-08-24T11:37:04;25.00;67.90
43995;DHT22;51687;52.160;5.298;2023-08-24T11:39:31;25.00;67.50
43995;DHT22;51687;52.160;5.298;2023-08-24T11:42:00;25.00;67.10
43995;DHT22;51687;52.160;5.298;2023-08-24T11:44:44;25.00;67.40
43995;DHT22;51687;52.160;5.298;2023-08-24T11:47:12;25.10;67.80
43995;DHT22;51687;52.160;5.298;2023-08-24T11:49:39;25.00;67.30
43995;DHT22;51687;52.160;5.298;2023-08-24T11:52:06;25.10;66.80
43995;DHT22;51687;52.160;5.298;2023-08-24T11:54:33;25.10;67.10
43995;DHT22;51687;52.160;5.298;2023-08-24T11:57:00;25.10;66.90
43995;DHT22;51687;52.160;5.298;2023-08-24T11:59:28;25.10;66.30
43995;DHT22;51687;52.160;5.298;2023-08-24T12:01:55;25.10;65.90
43995;DHT22;51687;52.160;5.298;2023-08-24T12:04:21;25.10;66.60
43995;DHT22;51687;52.160;5.298;2023-08-24T12:06:48;25.10;66.60
43995;DHT22;51687;52.160;5.298;2023-08-24T12:09:16;25.10;66.40
43995;DHT22;51687;52.160;5.298;2023-08-24T12:11:43;25.20;66.70
43995;DHT22;51687;52.160;5.298;2023-08-24T12:14:17;25.10;66.30
43995;DHT22;51687;52.160;5.298;2023-08-24T12:16:43;25.10;67.60
43995;DHT22;51687;52.160;5.298;2023-08-24T12:19:10;25.10;67.00
43995;DHT22;51687;52.160;5.298;2023-08-24T12:21:37;25.10;65.90
43995;DHT22;51687;52.160;5.298;2023-08-24T12:24:07;25.20;66.80
43995;DHT22;51687;52.160;5.298;2023-08-24T12:26:35;25.20;65.40
43995;DHT22;51687;52.160;5.298;2023-08-24T12:29:04;25.20;66.10
43995;DHT22;51687;52.160;5.298;2023-08-24T12:31:33;25.20;66.80
43995;DHT22;51687;52.160;5.298;2023-08-24T12:34:07;25.20;65.50
43995;DHT22;51687;52.160;5.298;2023-08-24T12:36:36;25.20;67.30
43995;DHT22;51687;52.160;5.298;2023-08-24T12:39:04;25.20;67.00
43995;DHT22;51687;52.160;5.298;2023-08-24T12:41:32;25.20;67.30
43995;DHT22;51687;52.160;5.298;2023-08-24T12:43:59;25.20;66.70
43995;DHT22;51687;52.160;5.298;2023-08-24T12:46:32;25.30;66.30
43995;DHT22;51687;52.160;5.298;2023-08-24T12:48:59;25.30;65.90
43995;DHT22;51687;52.160;5.298;2023-08-24T12:51:26;25.30;65.80
43995;DHT22;51687;52.160;5.298;2023-08-24T12:53:53;25.30;65.80
43995;DHT22;51687;52.160;5.298;2023-08-24T12:56:19;25.30;66.00
43995;DHT22;51687;52.160;5.298;2023-08-24T12:58:46;25.30;65.80
43995;DHT22;51687;52.160;5.298;2023-08-24T13:01:13;25.30;65.80
43995;DHT22;51687;52.160;5.298;2023-08-24T13:03:40;25.40;66.00
43995;DHT22;51687;52.160;5.298;2023-08-24T13:06:07;25.40;65.90
43995;DHT22;51687;52.160;5.298;2023-08-24T13:08:50;25.40;65.40
43995;DHT22;51687;52.160;5.298;2023-08-24T13:11:18;25.40;64.80
43995;DHT22;51687;52.160;5.298;2023-08-24T13:13:45;25.40;64.90
43995;DHT22;51687;52.160;5.298;2023-08-24T13:16:14;25.40;65.20
43995;DHT22;51687;52.160;5.298;2023-08-24T13:18:42;25.40;64.60
43995;DHT22;51687;52.160;5.298;2023-08-24T13:21:09;25.40;65.00
43995;DHT22;51687;52.160;5.298;2023-08-24T13:23:36;25.40;65.00
43995;DHT22;51687;52.160;5.298;2023-08-24T13:26:03;25.50;66.60
43995;DHT22;51687;52.160;5.298;2023-08-24T13:28:29;25.50;65.10
43995;DHT22;51687;52.160;5.298;2023-08-24T13:30:56;25.50;65.70
43995;DHT22;51687;52.160;5.298;2023-08-24T13:33:23;25.50;66.20
43995;DHT22;51687;52.160;5.298;2023-08-24T13:35:50;25.50;65.10
43995;DHT22;51687;52.160;5.298;2023-08-24T13:38:17;25.50;66.20
43995;DHT22;51687;52.160;5.298;2023-08-24T13:40:43;25.50;66.40
43995;DHT22;51687;52.160;5.298;2023-08-24T13:43:13;25.50;65.70
43995;DHT22;51687;52.160;5.298;2023-08-24T13:45:40;25.60;66.60
43995;DHT22;51687;52.160;5.298;2023-08-24T13:48:07;25.60;66.20
43995;DHT22;51687;52.160;5.298;2023-08-24T13:50:34;25.60;66.50
43995;DHT22;51687;52.160;5.298;2023-08-24T13:53:02;25.60;66.20
43995;DHT22;51687;52.160;5.298;2023-08-24T13:55:29;25.60;65.80
43995;DHT22;51687;52.160;5.298;2023-08-24T13:57:57;25.60;65.20
43995;DHT22;51687;52.160;5.298;2023-08-24T14:00:24;25.70;65.00
43995;DHT22;51687;52.160;5.298;2023-08-24T14:02:52;25.70;65.30
43995;DHT22;51687;52.160;5.298;2023-08-24T14:05:20;25.70;65.20
43995;DHT22;51687;52.160;5.298;2023-08-24T14:07:47;25.70;66.10
43995;DHT22;51687;52.160;5.298;2023-08-24T14:10:13;25.70;66.30
43995;DHT22;51687;52.160;5.298;2023-08-24T14:12:40;25.70;66.00
43995;DHT22;51687;52.160;5.298;2023-08-24T14:15:07;25.70;65.40
43995;DHT22;51687;52.160;5.298;2023-08-24T14:17:34;25.70;65.00
43995;DHT22;51687;52.160;5.298;2023-08-24T14:20:01;25.70;64.80
43995;DHT22;51687;52.160;5.298;2023-08-24T14:22:30;25.80;65.00
43995;DHT22;51687;52.160;5.298;2023-08-24T14:24:57;25.70;65.10
43995;DHT22;51687;52.160;5.298;2023-08-24T14:27:24;25.80;66.10
43995;DHT22;51687;52.160;5.298;2023-08-24T14:29:51;25.80;65.20
43995;DHT22;51687;52.160;5.298;2023-08-24T14:32:18;25.80;65.80
43995;DHT22;51687;52.160;5.298;2023-08-24T14:34:44;25.80;65.30
43995;DHT22;51687;52.160;5.298;2023-08-24T14:37:11;25.80;65.60
43995;DHT22;51687;52.160;5.298;2023-08-24T14:39:38;25.80;65.70
43995;DHT22;51687;52.160;5.298;2023-08-24T14:42:06;25.90;65.50
43995;DHT22;51687;52.160;5.298;2023-08-24T14:44:33;25.90;65.20
43995;DHT22;51687;52.160;5.298;2023-08-24T14:47:01;25.90;65.20
43995;DHT22;51687;52.160;5.298;2023-08-24T14:49:28;25.90;65.30
43995;DHT22;51687;52.160;5.298;2023-08-24T14:51:59;25.90;65.10
43995;DHT22;51687;52.160;5.298;2023-08-24T14:54:26;25.90;65.30
